KHWD/HWD METAR and TAF weather

Enter ICAO airport designator
Station Type Date Time Source
KHWD METAR 2022/10/01 08:13 UTC NOAA

KHWD 010813Z 34003KT 10SM BKN007 14/13 A2982 RMK AO2 T01440128


Station Type Date Time Source
KHWD Decoded METAR 2022/10/01 08:13 UTC NOAA

HAYWARD AIR TERMINAL, CA, United States (KHWD) 37-40N 122-07W 21M
Oct 01, 2022 - 04:13 AM EDT / 2022.10.01 0813 UTC
Wind: from the NNW (340 degrees) at 3 MPH (3 KT):0
Visibility: 10 mile(s):0
Sky conditions: mostly cloudy
Temperature: 57.9 F (14.4 C)
Dew Point: 55.0 F (12.8 C)
Relative Humidity: 90%
Pressure (altimeter): 29.82 in. Hg (1009 hPa)
ob: KHWD 010813Z 34003KT 10SM BKN007 14/13 A2982 RMK AO2 T01440128
cycle: 8

Station Type Date Time Source
KHWD TAF UTC NOAA

Error!

Example: see airport list